Time;durP1;ratioP1;P1;durP2;ratioP2;P2;SDS_P1;SDS_P2;PMS_P1;PMS_P2;Temp;Humidity;BMP_temperature;BMP_pressure;BME280_temperature;BME280_humidity;BME280_pressure;Samples;Min_cycle;Max_cycle;Signal;HPM_P1;HPM_P2
2023/10/22 00:02:12;;;;;;;6.07;2.97;;;12.20;99.90;;;;;;5073453;28;20328;-72
2023/10/22 00:04:44;;;;;;;6.35;3.00;;;12.20;99.90;;;;;;5060951;28;20293;-71
2023/10/22 00:07:14;;;;;;;5.32;2.50;;;12.10;99.90;;;;;;5073512;28;20223;-71
2023/10/22 00:09:41;;;;;;;4.63;2.03;;;12.10;99.90;;;;;;5069306;28;20199;-68
2023/10/22 00:12:08;;;;;;;8.95;2.38;;;12.10;99.90;;;;;;5073103;28;20298;-71
2023/10/22 00:14:37;;;;;;;6.00;2.88;;;12.00;99.90;;;;;;5072945;28;20209;-69
2023/10/22 00:17:04;;;;;;;6.07;2.10;;;12.00;99.90;;;;;;5072368;28;20229;-69
2023/10/22 00:19:31;;;;;;;6.07;2.20;;;12.00;99.90;;;;;;5072325;28;20395;-71
2023/10/22 00:21:58;;;;;;;10.35;2.67;;;11.90;99.90;;;;;;5071955;28;20309;-71
2023/10/22 00:24:26;;;;;;;5.15;2.35;;;11.90;99.90;;;;;;5073175;28;20202;-70
2023/10/22 00:26:53;;;;;;;8.77;2.60;;;11.90;99.90;;;;;;5072773;28;20263;-71
2023/10/22 00:29:20;;;;;;;2.40;1.70;;;11.90;99.90;;;;;;5072250;28;20214;-69
2023/10/22 00:31:47;;;;;;;6.55;2.22;;;11.90;99.90;;;;;;5072574;28;20678;-69
2023/10/22 00:34:14;;;;;;;3.15;2.20;;;11.80;99.90;;;;;;5073139;28;20259;-70
2023/10/22 00:36:41;;;;;;;3.10;1.85;;;11.80;99.90;;;;;;5071251;28;20220;-70
2023/10/22 00:39:08;;;;;;;6.60;2.10;;;11.80;99.90;;;;;;5072220;28;20222;-71
2023/10/22 00:41:36;;;;;;;3.90;1.50;;;11.80;99.90;;;;;;5072397;28;20233;-70
2023/10/22 00:44:03;;;;;;;8.20;2.80;;;11.90;99.90;;;;;;5072839;28;20395;-69
2023/10/22 00:46:30;;;;;;;7.03;2.97;;;11.80;99.90;;;;;;5072424;28;20225;-69
2023/10/22 00:48:58;;;;;;;2.38;1.88;;;11.80;99.90;;;;;;5071544;28;20194;-70
2023/10/22 00:51:25;;;;;;;6.72;2.45;;;11.80;99.90;;;;;;5072388;28;20286;-70
2023/10/22 00:53:53;;;;;;;5.93;2.60;;;11.70;99.90;;;;;;5072241;28;20732;-69
2023/10/22 00:56:22;;;;;;;4.75;1.80;;;11.70;99.90;;;;;;5069561;28;20567;-71
2023/10/22 00:58:51;;;;;;;4.68;2.25;;;11.70;99.90;;;;;;5072088;28;20213;-71
2023/10/22 01:01:19;;;;;;;4.80;2.67;;;11.70;99.90;;;;;;5070976;28;20628;-71
2023/10/22 01:03:46;;;;;;;8.20;2.53;;;11.70;99.90;;;;;;5072396;28;20219;-71
2023/10/22 01:06:14;;;;;;;6.75;2.75;;;11.60;99.90;;;;;;5071677;28;20300;-71
2023/10/22 01:08:42;;;;;;;4.63;1.83;;;11.60;99.90;;;;;;5071797;28;20288;-72
2023/10/22 01:11:10;;;;;;;3.58;2.10;;;11.60;99.90;;;;;;5072073;28;20630;-71
2023/10/22 01:13:37;;;;;;;7.63;2.55;;;11.60;99.90;;;;;;5072416;28;20205;-71
2023/10/22 01:16:06;;;;;;;3.38;2.80;;;11.60;99.90;;;;;;5080862;22;20220;31
2023/10/22 01:18:33;;;;;;;4.55;2.30;;;11.60;99.90;;;;;;4987922;28;20223;-79
2023/10/22 01:21:00;;;;;;;6.05;4.10;;;11.60;99.90;;;;;;4991240;28;20219;-79
2023/10/22 01:23:28;;;;;;;4.35;2.97;;;11.50;99.90;;;;;;4993928;28;20226;-78
2023/10/22 01:25:55;;;;;;;4.82;2.95;;;11.40;99.90;;;;;;4991727;28;20210;-79
2023/10/22 01:28:22;;;;;;;4.82;2.88;;;11.40;99.90;;;;;;4996505;28;20206;-79
2023/10/22 01:30:48;;;;;;;4.13;3.10;;;11.40;99.90;;;;;;5001558;28;20296;-79
2023/10/22 01:33:15;;;;;;;3.95;2.00;;;11.40;99.90;;;;;;4988393;28;20227;-79
2023/10/22 01:35:42;;;;;;;4.70;1.70;;;11.40;99.90;;;;;;4993062;28;20233;-79
2023/10/22 01:38:11;;;;;;;3.25;1.90;;;11.40;99.90;;;;;;4996680;28;20238;-79
2023/10/22 01:40:39;;;;;;;5.05;1.52;;;11.30;99.90;;;;;;4989695;28;20216;-80
2023/10/22 01:43:05;;;;;;;4.13;1.65;;;11.30;99.90;;;;;;4999297;28;20334;-80
2023/10/22 01:45:32;;;;;;;6.55;2.15;;;11.20;99.90;;;;;;4994360;28;20207;-80
2023/10/22 01:47:59;;;;;;;4.72;2.10;;;11.20;99.90;;;;;;4992568;28;20257;-80
2023/10/22 01:50:26;;;;;;;4.68;2.58;;;11.20;99.90;;;;;;4993770;28;20207;-79
2023/10/22 01:52:53;;;;;;;4.00;1.90;;;11.20;99.90;;;;;;4995288;28;20231;-79
2023/10/22 01:55:20;;;;;;;3.03;1.85;;;11.20;99.90;;;;;;4996790;28;20203;-80
2023/10/22 01:57:48;;;;;;;4.95;2.03;;;11.20;99.90;;;;;;4996240;28;20200;-80
2023/10/22 02:00:17;;;;;;;4.43;2.10;;;11.20;99.90;;;;;;4994689;28;20207;-80
2023/10/22 02:02:44;;;;;;;2.75;1.95;;;11.20;99.90;;;;;;4996135;28;20235;-80
2023/10/22 02:05:11;;;;;;;8.70;2.00;;;11.20;99.90;;;;;;4994608;28;20235;-79
2023/10/22 02:07:39;;;;;;;3.53;2.30;;;11.20;99.90;;;;;;4999142;28;20622;-80
2023/10/22 02:10:08;;;;;;;2.42;1.60;;;11.20;99.90;;;;;;5000341;28;20235;-79
2023/10/22 02:12:35;;;;;;;6.38;1.90;;;11.10;99.90;;;;;;4998674;28;20212;-78
2023/10/22 02:15:04;;;;;;;4.40;2.53;;;11.10;99.90;;;;;;4999077;28;20250;-79
2023/10/22 02:17:30;;;;;;;2.40;1.40;;;11.10;99.90;;;;;;5000651;28;20346;-79
2023/10/22 02:19:57;;;;;;;4.15;1.83;;;11.10;99.90;;;;;;5000094;28;20229;-79
2023/10/22 02:22:24;;;;;;;6.55;1.90;;;11.10;99.90;;;;;;5000289;28;20228;-78
2023/10/22 02:24:51;;;;;;;11.50;2.08;;;11.10;99.90;;;;;;4994420;28;20599;-80
2023/10/22 02:27:18;;;;;;;4.05;2.20;;;11.10;99.90;;;;;;4993869;28;20209;-79
2023/10/22 02:29:45;;;;;;;3.70;1.83;;;11.10;99.90;;;;;;4994442;28;20206;-78
2023/10/22 02:32:13;;;;;;;3.10;1.40;;;11.10;99.90;;;;;;4998925;28;20590;-77
2023/10/22 02:34:40;;;;;;;4.38;1.83;;;11.10;99.90;;;;;;5003155;28;20222;-78
2023/10/22 02:37:07;;;;;;;6.00;1.20;;;11.10;99.90;;;;;;4999394;28;20211;-78
2023/10/22 02:39:33;;;;;;;7.75;2.88;;;11.10;99.90;;;;;;4998118;28;20209;-78
2023/10/22 02:42:00;;;;;;;4.28;2.45;;;11.10;99.90;;;;;;4994643;28;20252;-77
2023/10/22 02:44:27;;;;;;;3.80;1.90;;;11.10;99.90;;;;;;4998624;28;20237;-78
2023/10/22 02:46:54;;;;;;;4.50;1.48;;;11.10;99.90;;;;;;4999064;28;20211;-79
2023/10/22 02:49:23;;;;;;;3.63;2.78;;;11.10;99.90;;;;;;5009073;28;20275;-79
2023/10/22 02:51:50;;;;;;;1.67;1.42;;;11.10;99.90;;;;;;5008479;28;20218;-78
2023/10/22 02:54:17;;;;;;;2.78;1.92;;;11.10;99.90;;;;;;5009081;28;20269;-79
2023/10/22 02:56:43;;;;;;;7.82;2.22;;;11.10;99.90;;;;;;4998755;28;20229;-78
2023/10/22 02:59:11;;;;;;;4.20;1.88;;;11.20;99.90;;;;;;5008160;28;20200;-80
2023/10/22 03:01:38;;;;;;;2.70;1.30;;;11.20;99.90;;;;;;4995619;28;20638;-78
2023/10/22 03:04:05;;;;;;;3.20;2.08;;;11.10;99.90;;;;;;4998765;28;20229;-78
2023/10/22 03:06:33;;;;;;;6.53;1.60;;;11.10;99.90;;;;;;4994711;28;20209;-78
2023/10/22 03:09:00;;;;;;;4.20;1.83;;;11.10;99.90;;;;;;4992226;28;20212;-79
2023/10/22 03:11:27;;;;;;;3.75;1.58;;;11.10;99.90;;;;;;4995640;28;20208;-79
2023/10/22 03:13:54;;;;;;;5.22;2.05;;;11.00;99.90;;;;;;5000161;28;20220;-80
2023/10/22 03:16:21;;;;;;;2.05;1.38;;;11.00;99.90;;;;;;4995842;28;20210;-79
2023/10/22 03:18:48;;;;;;;6.10;1.90;;;11.00;99.90;;;;;;5020260;28;20294;-80
2023/10/22 03:21:17;;;;;;;5.53;2.35;;;11.00;99.90;;;;;;5018731;28;20286;-79
2023/10/22 03:23:45;;;;;;;4.13;1.83;;;10.90;99.90;;;;;;5012845;28;20234;-80
2023/10/22 03:26:15;;;;;;;3.70;2.03;;;10.90;99.90;;;;;;5010315;28;20211;-77
2023/10/22 03:28:42;;;;;;;3.22;1.40;;;11.00;99.90;;;;;;5007054;28;20205;-77
2023/10/22 03:31:10;;;;;;;4.38;2.15;;;11.00;99.90;;;;;;5011117;28;20260;-77
2023/10/22 03:33:37;;;;;;;3.83;1.42;;;11.00;99.90;;;;;;5019594;28;20294;-80
2023/10/22 03:36:04;;;;;;;5.72;2.63;;;11.00;99.90;;;;;;5024101;28;20273;-78
2023/10/22 03:38:32;;;;;;;10.73;1.85;;;10.90;99.90;;;;;;5017720;28;20579;-79
2023/10/22 03:41:02;;;;;;;7.82;1.88;;;10.90;99.90;;;;;;5020290;28;20219;-80
2023/10/22 03:43:29;;;;;;;4.63;2.00;;;10.90;99.90;;;;;;5017763;28;20280;-77
2023/10/22 03:45:56;;;;;;;4.18;1.67;;;10.90;99.90;;;;;;5011028;28;20210;-79
2023/10/22 03:48:23;;;;;;;6.80;1.65;;;10.90;99.90;;;;;;5013785;28;20713;-78
2023/10/22 03:50:50;;;;;;;3.10;2.28;;;10.90;99.90;;;;;;5018531;28;20295;-80
2023/10/22 03:53:17;;;;;;;6.68;1.90;;;10.80;99.90;;;;;;5019263;28;20229;-78
2023/10/22 03:55:44;;;;;;;6.57;1.95;;;10.80;99.90;;;;;;5015438;28;20210;-78
2023/10/22 03:58:12;;;;;;;5.40;1.83;;;10.80;99.90;;;;;;5016643;28;20273;-78
2023/10/22 04:00:39;;;;;;;4.95;1.30;;;10.80;99.90;;;;;;5018382;28;20479;-78
2023/10/22 04:03:06;;;;;;;4.20;1.77;;;10.80;99.90;;;;;;5007715;28;20229;-78
2023/10/22 04:05:33;;;;;;;1.95;1.25;;;10.80;99.90;;;;;;5009966;28;20298;-78
2023/10/22 04:08:00;;;;;;;2.55;1.40;;;10.80;99.90;;;;;;5018200;28;20653;-79
2023/10/22 04:10:27;;;;;;;3.47;1.60;;;10.90;99.90;;;;;;5010226;28;20841;-78
2023/10/22 04:12:54;;;;;;;9.35;2.47;;;10.80;99.90;;;;;;5009547;28;20195;-78
2023/10/22 04:15:23;;;;;;;3.60;1.20;;;10.80;99.90;;;;;;5013177;28;20223;-78
2023/10/22 04:17:49;;;;;;;4.03;1.27;;;10.80;99.90;;;;;;5012311;28;20667;-79
2023/10/22 04:20:17;;;;;;;8.32;1.85;;;10.80;99.90;;;;;;5009211;28;20211;-78
2023/10/22 04:22:44;;;;;;;1.77;1.50;;;10.80;99.90;;;;;;5012105;28;20284;-79
2023/10/22 04:25:11;;;;;;;5.38;1.85;;;10.70;99.90;;;;;;5016814;28;20220;-78
2023/10/22 04:27:38;;;;;;;1.67;1.40;;;10.70;99.90;;;;;;5019214;28;20556;-79
2023/10/22 04:30:07;;;;;;;4.00;1.20;;;10.70;99.90;;;;;;5013634;28;20206;-81
2023/10/22 04:32:36;;;;;;;4.90;1.60;;;10.80;99.90;;;;;;5010869;28;20214;-78
2023/10/22 04:35:05;;;;;;;2.28;1.25;;;10.80;99.90;;;;;;5018864;28;20226;-78
2023/10/22 04:37:32;;;;;;;3.55;1.45;;;10.80;99.90;;;;;;5014200;28;20579;-81
2023/10/22 04:39:59;;;;;;;4.22;1.50;;;10.80;99.90;;;;;;5008371;28;20652;-78
2023/10/22 04:42:26;;;;;;;2.28;1.17;;;10.80;99.90;;;;;;5007631;28;20223;-78
2023/10/22 04:44:53;;;;;;;4.25;1.38;;;10.80;99.90;;;;;;5007404;28;20289;-79
2023/10/22 04:47:20;;;;;;;5.13;1.80;;;10.80;99.90;;;;;;5015092;28;20198;-79
2023/10/22 04:49:49;;;;;;;2.67;1.75;;;10.80;99.90;;;;;;5008808;28;20293;-80
2023/10/22 04:52:22;;;;;;;3.53;1.90;;;10.90;99.90;;;;;;5001620;28;20304;-79
2023/10/22 04:54:49;;;;;;;1.92;1.30;;;10.90;99.90;;;;;;5006475;28;20218;-80
2023/10/22 04:57:17;;;;;;;3.28;1.67;;;10.90;99.90;;;;;;5014276;28;20229;-79
2023/10/22 04:59:44;;;;;;;4.97;1.85;;;11.00;99.90;;;;;;5013770;28;20692;-80
2023/10/22 05:02:11;;;;;;;3.90;1.40;;;11.00;99.90;;;;;;5011369;28;20200;-80
2023/10/22 05:04:38;;;;;;;2.85;1.48;;;11.00;99.90;;;;;;5003724;28;20226;-78
2023/10/22 05:07:06;;;;;;;4.65;1.15;;;11.00;99.90;;;;;;5010834;28;20675;-80
2023/10/22 05:09:33;;;;;;;4.55;1.40;;;11.00;99.90;;;;;;5018120;28;20289;-78
2023/10/22 05:12:00;;;;;;;5.55;1.90;;;11.00;99.90;;;;;;5012900;28;20214;-79
2023/10/22 05:14:27;;;;;;;5.32;1.50;;;11.00;99.90;;;;;;5018662;28;20266;-78
2023/10/22 05:16:53;;;;;;;3.17;1.73;;;11.10;99.90;;;;;;5009689;28;20210;-78
2023/10/22 05:19:20;;;;;;;4.15;2.10;;;11.10;99.90;;;;;;5008805;28;20289;-79
2023/10/22 05:21:47;;;;;;;5.60;1.40;;;11.10;99.90;;;;;;5019555;28;20752;-78
2023/10/22 05:24:15;;;;;;;3.78;1.50;;;11.20;99.90;;;;;;5014003;28;20319;-78
2023/10/22 05:26:42;;;;;;;2.67;1.30;;;11.20;99.90;;;;;;5025381;28;20296;-79
2023/10/22 05:29:09;;;;;;;2.55;1.55;;;11.30;99.90;;;;;;5019806;28;20206;-79
2023/10/22 05:31:36;;;;;;;3.53;1.35;;;11.30;99.90;;;;;;5020584;28;20206;-79
2023/10/22 05:34:02;;;;;;;2.45;1.45;;;11.40;99.90;;;;;;5019265;28;20231;-79
2023/10/22 05:36:29;;;;;;;6.78;1.27;;;11.40;99.90;;;;;;5016902;28;20207;-78
2023/10/22 05:38:56;;;;;;;5.35;1.58;;;11.40;99.90;;;;;;5015860;28;20207;-79
2023/10/22 05:41:26;;;;;;;5.40;2.50;;;11.40;99.90;;;;;;5017001;28;20302;-79
2023/10/22 05:43:56;;;;;;;3.45;1.70;;;11.40;99.90;;;;;;5015325;28;20232;-79
2023/10/22 05:46:23;;;;;;;3.38;1.20;;;11.40;99.90;;;;;;5017003;28;20655;-79
2023/10/22 05:48:50;;;;;;;3.42;1.30;;;11.50;99.90;;;;;;5025163;28;20294;-79
2023/10/22 05:51:16;;;;;;;2.17;1.30;;;11.50;99.90;;;;;;5017518;28;20207;-79
2023/10/22 05:53:44;;;;;;;2.85;1.40;;;11.60;99.90;;;;;;5015915;28;20223;-79
2023/10/22 05:56:10;;;;;;;6.93;2.80;;;11.60;99.90;;;;;;5012612;28;20215;-78
2023/10/22 05:58:39;;;;;;;4.70;1.80;;;11.50;99.90;;;;;;5019976;28;20262;-80
2023/10/22 06:01:06;;;;;;;2.28;1.27;;;11.50;99.90;;;;;;5011314;28;20200;-81
2023/10/22 06:03:33;;;;;;;6.28;1.80;;;11.60;99.90;;;;;;5012628;28;20234;-78
2023/10/22 06:06:00;;;;;;;2.33;1.30;;;11.60;99.90;;;;;;5026975;28;20227;-79
2023/10/22 06:08:27;;;;;;;3.92;1.52;;;11.60;99.90;;;;;;5015071;28;20200;-78
2023/10/22 06:10:54;;;;;;;4.38;1.40;;;11.70;99.90;;;;;;5016974;28;20209;-78
2023/10/22 06:13:21;;;;;;;2.13;1.10;;;11.80;99.90;;;;;;5013517;28;20250;-80
2023/10/22 06:15:49;;;;;;;3.47;1.48;;;11.90;99.90;;;;;;5013948;28;20215;-80
2023/10/22 06:18:16;;;;;;;1.90;1.02;;;12.00;99.90;;;;;;5013968;28;20254;-78
2023/10/22 06:20:43;;;;;;;1.95;1.30;;;12.10;99.90;;;;;;5015329;28;20216;-79
2023/10/22 06:23:09;;;;;;;4.70;1.23;;;12.20;99.90;;;;;;5017009;28;20319;-79
2023/10/22 06:25:36;;;;;;;3.88;1.10;;;12.30;99.90;;;;;;5019835;28;20275;-81
2023/10/22 06:28:03;;;;;;;2.55;1.10;;;12.40;99.90;;;;;;5014296;28;20217;-79
2023/10/22 06:30:30;;;;;;;1.90;1.52;;;12.60;99.90;;;;;;5012041;28;20213;-79
2023/10/22 06:32:59;;;;;;;5.47;1.15;;;12.70;99.90;;;;;;5017840;28;20284;-79
2023/10/22 06:35:29;;;;;;;3.28;1.45;;;12.80;99.90;;;;;;5014413;28;20590;-79
2023/10/22 06:37:56;;;;;;;4.93;1.13;;;13.00;99.90;;;;;;5013456;28;20300;-79
2023/10/22 06:40:24;;;;;;;2.17;1.00;;;13.00;99.90;;;;;;5012597;28;20239;-81
2023/10/22 06:42:54;;;;;;;6.88;1.65;;;13.00;99.90;;;;;;5019229;28;20232;-81
2023/10/22 06:45:21;;;;;;;3.78;1.55;;;13.10;99.90;;;;;;5029458;28;20205;-80
2023/10/22 06:47:48;;;;;;;3.25;1.65;;;13.10;99.90;;;;;;5025097;28;20244;-80
2023/10/22 06:50:16;;;;;;;3.97;1.15;;;13.20;99.90;;;;;;5016009;28;20216;-80
2023/10/22 06:52:43;;;;;;;2.67;1.08;;;13.30;99.90;;;;;;5029747;28;20212;-81
2023/10/22 06:55:10;;;;;;;7.03;1.73;;;13.40;99.90;;;;;;5032709;28;20260;-80
2023/10/22 06:57:38;;;;;;;3.03;1.10;;;13.50;99.90;;;;;;5030123;28;20696;-80
2023/10/22 07:00:07;;;;;;;7.47;1.90;;;13.40;99.90;;;;;;5026184;28;20205;-82
2023/10/22 07:02:35;;;;;;;3.75;1.80;;;13.50;99.90;;;;;;5015338;28;20639;-81
2023/10/22 07:05:02;;;;;;;4.03;1.17;;;13.60;99.90;;;;;;5020224;28;20232;-79
2023/10/22 07:07:30;;;;;;;2.00;1.00;;;13.70;99.90;;;;;;5012874;28;20216;-81
2023/10/22 07:09:57;;;;;;;3.85;1.20;;;13.70;99.90;;;;;;5020457;28;20205;-81
2023/10/22 07:12:25;;;;;;;4.10;1.98;;;13.80;99.90;;;;;;5009994;28;20633;-83
2023/10/22 07:14:52;;;;;;;3.08;1.60;;;13.80;99.90;;;;;;5008200;28;20217;-83
2023/10/22 07:17:19;;;;;;;1.33;1.20;;;13.90;99.90;;;;;;5026165;28;20209;-81
2023/10/22 07:19:46;;;;;;;1.98;1.70;;;13.90;99.90;;;;;;5018994;28;20265;-83
2023/10/22 07:22:13;;;;;;;4.32;0.90;;;13.90;99.90;;;;;;5024085;28;20202;-84
2023/10/22 07:24:45;;;;;;;3.05;1.17;;;13.90;99.90;;;;;;5018633;28;20270;-86
2023/10/22 07:27:13;;;;;;;4.28;1.55;;;13.90;99.90;;;;;;5022460;28;20211;-84
2023/10/22 07:29:43;;;;;;;4.82;1.25;;;13.70;99.90;;;;;;5017107;28;20204;-87
2023/10/22 07:32:10;;;;;;;1.40;1.17;;;13.70;99.90;;;;;;5022868;28;20205;-86
2023/10/22 07:34:37;;;;;;;2.92;1.20;;;13.70;99.90;;;;;;5022470;28;20275;-84
2023/10/22 07:37:07;;;;;;;3.35;1.33;;;13.70;99.90;;;;;;5022866;28;20288;-84
2023/10/22 07:39:34;;;;;;;4.18;1.25;;;13.50;99.90;;;;;;5022128;28;20216;-88
2023/10/22 07:42:02;;;;;;;2.30;1.08;;;13.50;99.90;;;;;;5017764;28;20288;-84
2023/10/22 07:44:29;;;;;;;5.80;1.90;;;13.40;99.90;;;;;;5021817;28;20302;-83
2023/10/22 07:46:56;;;;;;;4.93;1.73;;;13.20;99.90;;;;;;5026538;28;20204;-86
2023/10/22 07:49:32;;;;;;;4.10;1.65;;;13.10;99.90;;;;;;5023587;28;20201;-87
2023/10/22 07:51:59;;;;;;;2.40;1.17;;;13.00;99.90;;;;;;5022377;28;20216;-85
2023/10/22 07:54:26;;;;;;;4.50;1.95;;;13.00;99.90;;;;;;5012841;28;20226;-81
2023/10/22 07:56:54;;;;;;;2.65;1.65;;;12.90;99.90;;;;;;5019613;28;20209;-79
2023/10/22 07:59:22;;;;;;;3.85;1.70;;;12.80;99.90;;;;;;5014398;28;20201;-81
2023/10/22 08:01:53;;;;;;;6.85;1.73;;;12.70;99.90;;;;;;5026156;28;20224;-84
2023/10/22 08:04:20;;;;;;;6.15;1.65;;;12.70;99.90;;;;;;5023271;28;20225;-79
2023/10/22 08:06:47;;;;;;;2.00;1.90;;;12.70;99.90;;;;;;5034232;28;20189;-82
2023/10/22 08:09:14;;;;;;;1.90;1.55;;;12.80;99.90;;;;;;5039651;28;20199;-83
2023/10/22 08:11:40;;;;;;;3.50;1.63;;;12.70;99.90;;;;;;5037578;28;20241;-82
2023/10/22 08:14:07;;;;;;;4.18;1.80;;;12.60;99.90;;;;;;5042744;28;20596;-86
2023/10/22 08:16:36;;;;;;;6.30;2.38;;;12.60;99.90;;;;;;5046910;28;20228;-84
2023/10/22 08:21:45;;;;;;;5.38;2.35;;;12.70;99.90;;;;;;4840447;26;20306;-77
2023/10/22 08:24:12;;;;;;;6.47;2.00;;;12.70;99.90;;;;;;5028264;28;20290;-74
2023/10/22 08:26:39;;;;;;;2.55;2.10;;;12.70;99.90;;;;;;5040094;28;20306;-74
2023/10/22 08:29:08;;;;;;;4.45;2.50;;;12.70;99.90;;;;;;5029429;28;20207;-73
2023/10/22 08:31:36;;;;;;;4.30;2.30;;;12.70;99.90;;;;;;5031077;28;20208;-75
2023/10/22 08:34:03;;;;;;;5.30;3.25;;;12.70;99.90;;;;;;5033563;28;20238;-77
2023/10/22 08:36:31;;;;;;;5.13;2.60;;;12.70;99.90;;;;;;5030227;28;20325;-74
2023/10/22 08:38:58;;;;;;;3.65;2.25;;;12.80;99.90;;;;;;5033701;28;20254;-76
2023/10/22 08:41:32;;;;;;;3.90;3.50;;;12.80;99.90;;;;;;5034946;28;20749;-77
2023/10/22 08:43:59;;;;;;;5.18;2.70;;;12.80;99.90;;;;;;5026322;28;20232;-74
2023/10/22 08:46:26;;;;;;;4.00;2.17;;;12.80;99.90;;;;;;5034179;28;20263;-75
2023/10/22 08:48:54;;;;;;;4.15;2.90;;;12.90;99.90;;;;;;5031596;28;20303;-75
2023/10/22 08:51:22;;;;;;;4.10;3.25;;;12.90;99.90;;;;;;5031630;28;20721;-75
2023/10/22 08:53:49;;;;;;;3.95;3.38;;;12.90;99.90;;;;;;5030881;28;20278;-77
2023/10/22 08:56:17;;;;;;;5.57;4.15;;;12.90;99.90;;;;;;5028884;28;20200;-77
2023/10/22 08:58:44;;;;;;;5.95;4.30;;;12.90;99.90;;;;;;5032364;28;20307;-77
2023/10/22 09:01:11;;;;;;;4.63;4.22;;;12.80;99.90;;;;;;5027646;28;20575;-75
2023/10/22 09:03:38;;;;;;;4.47;3.90;;;12.80;99.90;;;;;;5031717;28;20302;-81
2023/10/22 09:06:06;;;;;;;4.38;3.97;;;12.70;99.90;;;;;;5030589;28;20608;-75
2023/10/22 09:08:43;;;;;;;4.65;4.25;;;12.70;99.90;;;;;;5029880;28;20215;-76
2023/10/22 09:11:14;;;;;;;4.88;3.28;;;12.70;99.90;;;;;;5030250;28;20255;-79
2023/10/22 09:13:41;;;;;;;4.97;3.60;;;12.60;99.90;;;;;;5023902;28;20220;-75
2023/10/22 09:16:09;;;;;;;5.82;3.00;;;12.60;99.90;;;;;;5028976;28;20206;-76
2023/10/22 09:18:43;;;;;;;4.05;3.00;;;12.60;99.90;;;;;;5024303;28;20745;-76
2023/10/22 09:21:12;;;;;;;4.95;3.15;;;12.50;99.90;;;;;;5031824;28;20670;-74
2023/10/22 09:23:39;;;;;;;6.40;3.60;;;12.60;99.90;;;;;;5031087;28;20296;-77
2023/10/22 09:26:07;;;;;;;4.22;3.10;;;12.60;99.90;;;;;;5030013;28;20236;-71
2023/10/22 09:28:34;;;;;;;5.25;3.10;;;12.60;99.90;;;;;;5028913;28;20719;-73
2023/10/22 09:31:03;;;;;;;4.00;3.10;;;12.70;99.90;;;;;;5029440;28;20232;-75
2023/10/22 09:33:33;;;;;;;6.70;3.40;;;12.80;99.90;;;;;;5034006;28;20207;-77
2023/10/22 09:36:03;;;;;;;4.10;3.15;;;12.90;99.90;;;;;;5033614;28;20204;-76
2023/10/22 09:38:45;;;;;;;3.92;2.80;;;13.00;99.90;;;;;;5030582;28;20224;-76
2023/10/22 09:41:14;;;;;;;2.80;2.60;;;13.10;99.90;;;;;;5031119;28;20702;-78
2023/10/22 09:43:41;;;;;;;3.17;2.40;;;13.10;99.90;;;;;;5032514;28;20560;-75
2023/10/22 09:46:08;;;;;;;3.08;1.90;;;13.30;99.90;;;;;;5024463;28;20226;-78
2023/10/22 09:48:36;;;;;;;2.28;2.08;;;13.10;99.90;;;;;;5032277;28;20666;-74
2023/10/22 09:51:06;;;;;;;4.38;1.65;;;13.10;99.90;;;;;;5023873;28;20682;-76
2023/10/22 09:53:39;;;;;;;3.38;1.52;;;13.10;99.90;;;;;;5036747;28;20213;-77
2023/10/22 09:56:09;;;;;;;1.42;1.17;;;13.10;99.90;;;;;;5023254;28;20218;-73
2023/10/22 09:58:43;;;;;;;3.35;1.80;;;13.10;99.90;;;;;;5028992;28;20200;-74
2023/10/22 10:01:11;;;;;;;2.08;1.40;;;13.20;99.90;;;;;;5026108;28;20702;-75
2023/10/22 10:03:38;;;;;;;3.38;1.95;;;13.20;99.90;;;;;;5028559;28;20204;-74
2023/10/22 10:06:07;;;;;;;2.45;1.77;;;13.20;99.90;;;;;;5031952;28;20306;-76
2023/10/22 10:08:37;;;;;;;2.97;2.20;;;13.30;99.90;;;;;;5028819;28;20287;-77
2023/10/22 10:11:07;;;;;;;2.92;2.13;;;13.50;99.90;;;;;;5034901;28;20204;-73
2023/10/22 10:13:36;;;;;;;4.65;2.17;;;13.60;99.90;;;;;;5021723;28;20589;-74
2023/10/22 10:16:04;;;;;;;3.63;2.97;;;13.70;99.90;;;;;;5029682;28;20207;-76
2023/10/22 10:19:02;;;;;;;3.38;2.20;;;13.80;99.90;;;;;;5022253;28;20235;-73
2023/10/22 10:21:47;;;;;;;3.97;2.55;;;13.80;99.90;;;;;;5027800;28;20213;-74
2023/10/22 10:24:19;;;;;;;5.53;3.10;;;13.90;99.90;;;;;;5026533;28;20220;-74
2023/10/22 10:26:50;;;;;;;2.72;2.53;;;14.00;99.90;;;;;;5036275;28;20620;-74
2023/10/22 10:29:20;;;;;;;4.57;3.55;;;14.00;99.90;;;;;;5033224;28;20204;-74
2023/10/22 10:31:48;;;;;;;5.30;2.95;;;14.10;99.90;;;;;;5034979;28;20292;-75
2023/10/22 10:34:27;;;;;;;3.58;3.13;;;14.30;99.90;;;;;;5034813;28;20579;-72
2023/10/22 10:36:54;;;;;;;4.28;3.53;;;14.70;99.90;;;;;;5028719;28;20225;-75
2023/10/22 10:39:39;;;;;;;5.32;3.28;;;14.90;99.90;;;;;;5032195;28;20207;-78
2023/10/22 10:42:08;;;;;;;4.47;3.00;;;15.10;99.90;;;;;;5030926;28;20200;-74
2023/10/22 10:45:03;;;;;;;5.75;3.30;;;15.30;99.90;;;;;;5025296;28;20763;-76
2023/10/22 10:47:34;;;;;;;8.45;2.75;;;15.50;99.90;;;;;;5031129;28;20222;-75
2023/10/22 10:50:03;;;;;;;7.60;2.83;;;15.40;99.90;;;;;;5027711;28;20288;-73
2023/10/22 10:52:31;;;;;;;3.28;2.45;;;15.50;99.90;;;;;;5030265;28;20301;-72
2023/10/22 10:55:02;;;;;;;7.57;3.20;;;15.60;99.90;;;;;;5029352;28;20209;-74
2023/10/22 10:57:38;;;;;;;3.83;2.77;;;15.90;99.90;;;;;;5033715;28;20805;-74
2023/10/22 11:00:06;;;;;;;3.23;2.20;;;16.10;99.90;;;;;;5029319;28;20489;-74
2023/10/22 11:02:44;;;;;;;6.67;3.00;;;16.30;99.90;;;;;;5025701;28;20805;-71
2023/10/22 11:05:11;;;;;;;6.73;2.23;;;16.30;99.90;;;;;;5029739;28;20867;-74
2023/10/22 11:07:39;;;;;;;2.83;1.80;;;16.30;99.90;;;;;;5028269;28;20459;-75
2023/10/22 11:10:09;;;;;;;2.30;1.50;;;16.20;99.90;;;;;;5031326;28;20438;-73
2023/10/22 11:12:39;;;;;;;2.28;1.58;;;15.90;99.90;;;;;;5027506;28;20445;-74
2023/10/22 11:15:07;;;;;;;3.10;1.40;;;15.80;99.90;;;;;;5025234;28;20214;-75
2023/10/22 11:17:34;;;;;;;3.13;2.30;;;15.60;99.90;;;;;;5034762;28;20544;-73
2023/10/22 11:20:00;;;;;;;6.53;2.07;;;15.50;99.90;;;;;;5025412;28;20215;-76
2023/10/22 11:22:27;;;;;;;3.92;1.27;;;15.30;99.90;;;;;;5030922;28;20541;-72
2023/10/22 11:24:55;;;;;;;2.85;1.73;;;15.20;99.90;;;;;;5026234;28;20221;-73
2023/10/22 11:27:23;;;;;;;3.17;1.63;;;15.20;99.90;;;;;;5038025;28;20536;-73
2023/10/22 11:29:51;;;;;;;3.25;2.00;;;15.40;99.90;;;;;;5033879;28;20226;-75
2023/10/22 11:32:19;;;;;;;2.35;1.50;;;15.60;99.90;;;;;;5034418;28;20213;-75
2023/10/22 11:34:50;;;;;;;3.45;1.83;;;15.90;99.90;;;;;;5028722;28;20288;-73
2023/10/22 11:37:20;;;;;;;3.77;2.07;;;15.90;99.90;;;;;;5031421;28;20314;-74
2023/10/22 11:39:47;;;;;;;3.93;2.40;;;15.70;99.90;;;;;;5033853;28;20449;-74
2023/10/22 11:42:14;;;;;;;3.70;1.80;;;15.70;99.90;;;;;;5033886;28;21019;-73
2023/10/22 11:44:45;;;;;;;3.93;1.63;;;15.70;99.90;;;;;;5038029;28;20566;-74
2023/10/22 11:47:27;;;;;;;3.23;1.57;;;15.80;99.90;;;;;;5023497;28;20982;-73
2023/10/22 11:49:55;;;;;;;3.00;2.17;;;15.80;99.90;;;;;;5032746;28;20482;-73
2023/10/22 11:52:50;;;;;;;3.97;1.67;;;15.80;99.90;;;;;;5025292;28;20444;-73
2023/10/22 11:55:17;;;;;;;2.00;1.47;;;15.90;99.90;;;;;;5030346;28;20439;-73
2023/10/22 11:57:45;;;;;;;4.20;1.70;;;15.90;99.90;;;;;;5034798;28;20549;-75
2023/10/22 12:00:14;;;;;;;5.83;1.87;;;15.70;99.90;;;;;;5033948;28;20457;-73
2023/10/22 12:02:42;;;;;;;6.20;1.47;;;15.80;99.90;;;;;;5027207;28;20970;-73
2023/10/22 12:05:10;;;;;;;2.20;1.40;;;15.70;99.90;;;;;;5021800;28;20490;-73
2023/10/22 12:07:37;;;;;;;6.07;1.97;;;15.60;99.90;;;;;;5028528;28;20223;-73
2023/10/22 12:10:05;;;;;;;2.65;1.67;;;15.60;99.90;;;;;;5032889;28;20441;-73
2023/10/22 12:12:32;;;;;;;8.47;1.77;;;15.50;99.90;;;;;;5029886;28;20550;-74
2023/10/22 12:15:00;;;;;;;2.63;1.30;;;15.60;99.90;;;;;;5028608;28;20451;-74
2023/10/22 12:17:26;;;;;;;2.38;1.45;;;15.50;99.90;;;;;;5034066;28;20535;-74
2023/10/22 12:19:55;;;;;;;4.03;1.40;;;15.60;99.90;;;;;;5030466;28;20220;-72
2023/10/22 12:22:22;;;;;;;1.80;1.33;;;15.70;99.90;;;;;;5028883;28;20235;-72
2023/10/22 12:24:52;;;;;;;3.35;1.95;;;15.50;99.90;;;;;;5024446;28;20486;-74
2023/10/22 12:27:19;;;;;;;4.10;2.10;;;15.50;99.90;;;;;;5036936;28;20261;-72
2023/10/22 12:29:46;;;;;;;3.60;1.90;;;15.40;99.90;;;;;;5026073;28;20664;-73
2023/10/22 12:32:13;;;;;;;2.35;1.45;;;15.60;99.90;;;;;;5030987;28;20298;-76
2023/10/22 12:34:40;;;;;;;1.80;1.50;;;15.60;99.90;;;;;;5028688;28;20214;-73
2023/10/22 12:37:09;;;;;;;3.50;1.80;;;15.60;99.90;;;;;;5030729;28;20259;-74
2023/10/22 12:39:36;;;;;;;4.10;2.97;;;15.70;99.90;;;;;;5036846;28;20448;-72
2023/10/22 12:42:05;;;;;;;3.47;2.10;;;15.80;99.90;;;;;;5026878;28;20729;-75
2023/10/22 12:44:32;;;;;;;3.67;2.10;;;15.80;99.90;;;;;;5029959;28;20534;-73
2023/10/22 12:46:59;;;;;;;3.63;1.95;;;15.80;99.90;;;;;;5027125;28;20226;-74
2023/10/22 12:49:26;;;;;;;3.35;1.52;;;15.80;99.90;;;;;;5027108;28;20203;-73
2023/10/22 12:51:53;;;;;;;6.37;2.30;;;15.90;99.90;;;;;;5023813;28;20724;-71
2023/10/22 12:54:23;;;;;;;2.43;1.30;;;15.90;99.90;;;;;;5028980;28;20481;-75
2023/10/22 12:56:50;;;;;;;2.07;1.63;;;15.90;99.90;;;;;;5022914;28;20539;-75